Time;durP1;ratioP1;P1;durP2;ratioP2;P2;SDS_P1;SDS_P2;PMS_P1;PMS_P2;Temp;Humidity;BMP_temperature;BMP_pressure;BME280_temperature;BME280_humidity;BME280_pressure;Samples;Min_cycle;Max_cycle;Signal;HPM_P1;HPM_P2
2021/01/26 00:01:14;;;;;;;5.35;1.83;;;16.00;99.70;;;;;;5012167;28;20053;-64
2021/01/26 00:03:40;;;;;;;4.30;1.77;;;15.90;99.40;;;;;;5011804;28;20030;-64
2021/01/26 00:06:05;;;;;;;4.22;1.85;;;15.90;99.60;;;;;;5012075;28;20025;-64
2021/01/26 00:08:32;;;;;;;4.70;1.65;;;15.80;99.40;;;;;;5011941;28;20026;-63
2021/01/26 00:10:58;;;;;;;3.88;1.70;;;15.80;99.50;;;;;;5011938;28;20403;-64
2021/01/26 00:13:24;;;;;;;5.10;1.90;;;15.70;99.40;;;;;;5011915;28;20490;-64
2021/01/26 00:15:50;;;;;;;6.18;1.60;;;15.70;99.50;;;;;;5011359;28;20061;-65
2021/01/26 00:18:15;;;;;;;4.80;2.00;;;15.60;99.40;;;;;;5011833;28;20087;-65
2021/01/26 00:20:43;;;;;;;6.15;1.55;;;15.60;99.40;;;;;;5011640;28;20109;-65
2021/01/26 00:23:10;;;;;;;3.40;1.60;;;15.60;99.50;;;;;;5011398;28;20034;-65
2021/01/26 00:25:38;;;;;;;4.55;2.20;;;15.50;99.40;;;;;;5011609;28;20034;-64
2021/01/26 00:28:06;;;;;;;5.18;1.70;;;15.50;99.40;;;;;;5011710;28;20024;-65
2021/01/26 00:30:34;;;;;;;4.07;1.90;;;15.50;99.30;;;;;;5011377;28;20026;-64
2021/01/26 00:33:02;;;;;;;10.05;1.60;;;15.40;99.40;;;;;;5011982;28;20022;-63
2021/01/26 00:35:29;;;;;;;5.72;1.35;;;15.40;99.90;;;;;;5012018;28;20109;-64
2021/01/26 00:37:56;;;;;;;3.88;1.50;;;15.40;99.90;;;;;;5011249;28;20026;-66
2021/01/26 00:40:22;;;;;;;6.03;1.60;;;15.40;99.90;;;;;;5011573;28;20054;-66
2021/01/26 00:42:47;;;;;;;4.72;1.70;;;15.40;99.90;;;;;;5011260;28;20516;-64
2021/01/26 00:45:14;;;;;;;5.30;1.65;;;15.30;99.90;;;;;;5011636;28;20113;-64
2021/01/26 00:47:40;;;;;;;6.00;1.80;;;15.30;99.90;;;;;;5011246;28;20061;-66
2021/01/26 00:50:07;;;;;;;4.70;1.90;;;15.20;99.90;;;;;;5011260;28;20058;-66
2021/01/26 00:52:33;;;;;;;9.05;1.90;;;15.20;99.90;;;;;;5011185;28;20037;-65
2021/01/26 00:54:59;;;;;;;3.92;1.52;;;15.20;99.90;;;;;;5011655;28;20022;-65
2021/01/26 00:57:24;;;;;;;5.07;1.92;;;15.10;99.90;;;;;;5011373;28;20030;-65
2021/01/26 00:59:51;;;;;;;6.07;2.22;;;15.10;99.90;;;;;;5010809;28;20049;-64
2021/01/26 01:02:17;;;;;;;3.53;1.60;;;15.10;99.80;;;;;;5010888;28;20129;-65
2021/01/26 01:04:45;;;;;;;3.97;1.70;;;15.00;99.70;;;;;;5009877;28;20072;-65
2021/01/26 01:07:12;;;;;;;5.15;1.70;;;15.00;99.80;;;;;;5011332;28;20022;-66
2021/01/26 01:09:37;;;;;;;4.28;1.85;;;15.00;99.90;;;;;;5010455;28;20061;-65
2021/01/26 01:12:03;;;;;;;3.67;1.75;;;14.90;99.80;;;;;;5011216;28;20053;-65
2021/01/26 01:14:29;;;;;;;4.47;1.60;;;14.90;99.90;;;;;;5011623;28;20108;-64
2021/01/26 01:16:55;;;;;;;2.90;1.67;;;14.90;99.80;;;;;;5011010;28;20030;-65
2021/01/26 01:19:22;;;;;;;4.10;1.80;;;14.90;99.90;;;;;;5011211;28;20040;-66
2021/01/26 01:21:48;;;;;;;4.72;1.70;;;14.90;99.90;;;;;;5010944;28;20026;-66
2021/01/26 01:24:14;;;;;;;3.13;1.52;;;14.80;99.90;;;;;;5011200;28;20406;-65
2021/01/26 01:26:40;;;;;;;5.78;2.03;;;14.80;99.90;;;;;;5010981;28;20048;-66
2021/01/26 01:29:05;;;;;;;3.63;1.65;;;14.80;99.90;;;;;;5010711;28;20109;-65
2021/01/26 01:31:31;;;;;;;3.70;1.65;;;14.80;99.90;;;;;;5011886;28;20034;-66
2021/01/26 01:33:57;;;;;;;3.47;1.42;;;14.70;99.90;;;;;;5015156;28;20030;-65
2021/01/26 01:36:23;;;;;;;4.88;1.77;;;14.70;99.90;;;;;;5014075;28;20475;-66
2021/01/26 01:38:48;;;;;;;4.78;1.70;;;14.70;99.90;;;;;;5014426;28;20041;-65
2021/01/26 01:41:14;;;;;;;3.30;1.60;;;14.70;99.90;;;;;;5014928;28;20030;-66
2021/01/26 01:43:39;;;;;;;3.00;1.70;;;14.60;99.90;;;;;;5014504;28;20141;-66
2021/01/26 01:46:13;;;;;;;3.45;1.40;;;14.60;99.90;;;;;;5014584;28;20033;-66
2021/01/26 01:48:40;;;;;;;;;;;14.60;99.90;;;;;;5014819;28;20442;-67
2021/01/26 01:51:10;;;;;;;5.00;1.73;;;14.60;99.90;;;;;;5014495;28;19905;-66
2021/01/26 01:53:40;;;;;;;3.55;1.48;;;14.60;99.90;;;;;;5014154;28;20394;-67
2021/01/26 01:56:11;;;;;;;3.72;1.58;;;14.50;99.90;;;;;;5014501;28;20148;-66
2021/01/26 01:58:46;;;;;;;5.25;1.80;;;14.50;99.90;;;;;;5013841;28;20144;-65
2021/01/26 02:01:16;;;;;;;2.92;1.40;;;14.50;99.90;;;;;;5014313;28;20367;-65
2021/01/26 02:03:50;;;;;;;3.05;1.35;;;14.50;99.90;;;;;;5014014;28;20116;-65
2021/01/26 02:06:16;;;;;;;5.90;1.50;;;14.50;99.90;;;;;;5014198;28;20030;-65
2021/01/26 02:08:51;;;;;;;4.00;1.63;;;14.50;99.90;;;;;;5013408;28;20037;-65
2021/01/26 02:11:18;;;;;;;6.18;1.77;;;14.40;99.90;;;;;;5013776;28;20498;-65
2021/01/26 02:13:43;;;;;;;6.00;1.67;;;14.40;99.90;;;;;;5013888;28;20026;-66
2021/01/26 02:16:14;;;;;;;3.40;1.50;;;14.40;99.90;;;;;;5014105;28;20033;-66
2021/01/26 02:19:03;;;;;;;3.53;1.90;;;14.40;99.90;;;;;;5013621;28;20069;-66
2021/01/26 02:22:06;;;;;;;3.45;1.45;;;14.40;99.90;;;;;;5014342;28;20018;-66
2021/01/26 02:24:55;;;;;;;3.95;1.40;;;14.30;99.90;;;;;;5013784;28;20490;-66
2021/01/26 02:27:51;;;;;;;4.28;1.65;;;14.30;99.90;;;;;;5012516;28;20069;-66
2021/01/26 02:30:28;;;;;;;3.97;1.60;;;14.30;99.90;;;;;;5013558;28;20081;-66
2021/01/26 02:33:24;;;;;;;3.22;1.50;;;14.30;99.90;;;;;;5013201;28;20026;-65
2021/01/26 02:36:23;;;;;;;3.35;1.30;;;14.30;99.90;;;;;;5013470;28;20022;-66
2021/01/26 02:38:58;;;;;;;3.30;1.45;;;14.30;99.90;;;;;;5012998;28;20029;-66
2021/01/26 02:41:47;;;;;;;3.00;1.58;;;14.30;99.90;;;;;;5013627;28;20026;-66
2021/01/26 02:44:23;;;;;;;3.38;1.48;;;14.20;99.90;;;;;;5012522;28;20030;-66
2021/01/26 02:47:12;;;;;;;3.47;1.55;;;14.20;99.90;;;;;;5013297;28;20030;-66
2021/01/26 02:50:07;;;;;;;2.72;1.50;;;14.20;99.90;;;;;;5013250;28;20117;-66
2021/01/26 02:52:42;;;;;;;;;;;14.20;99.90;;;;;;5013607;28;20097;-66
2021/01/26 02:55:29;;;;;;;3.50;1.23;;;14.20;99.90;;;;;;5013357;28;20011;-66
2021/01/26 02:58:17;;;;;;;2.60;1.42;;;14.10;99.90;;;;;;5012708;28;20022;-66
2021/01/26 03:00:46;;;;;;;4.15;1.35;;;14.20;99.90;;;;;;5012719;28;20046;-66
2021/01/26 03:03:20;;;;;;;3.70;1.30;;;14.10;99.90;;;;;;5013217;28;20462;-66
2021/01/26 03:05:59;;;;;;;4.30;1.45;;;14.10;99.90;;;;;;5012805;28;20034;-66
2021/01/26 03:08:51;;;;;;;3.70;1.55;;;14.10;99.90;;;;;;5013048;28;20076;-66
2021/01/26 03:11:26;;;;;;;5.45;1.80;;;14.10;99.90;;;;;;4974494;28;20038;-66
2021/01/26 03:14:00;;;;;;;3.55;1.33;;;14.10;99.90;;;;;;4993191;28;20030;-66
2021/01/26 03:16:30;;;;;;;3.08;1.20;;;14.10;99.90;;;;;;4993421;28;20034;-66
2021/01/26 03:19:10;;;;;;;2.55;1.10;;;14.10;99.90;;;;;;4993035;28;20065;-65
2021/01/26 03:21:41;;;;;;;2.55;1.13;;;14.00;99.90;;;;;;4993225;28;20113;-65
2021/01/26 03:24:13;;;;;;;3.63;1.45;;;14.00;99.90;;;;;;4993361;28;20105;-65
2021/01/26 03:26:40;;;;;;;2.45;1.20;;;14.00;99.90;;;;;;4993083;28;20061;-65
2021/01/26 03:29:08;;;;;;;3.78;1.58;;;14.00;99.90;;;;;;5003186;28;20022;-66
2021/01/26 03:31:47;;;;;;;1.40;0.90;;;13.90;99.90;;;;;;5012280;28;20053;-66
2021/01/26 03:34:13;;;;;;;3.28;1.35;;;14.00;99.90;;;;;;5012863;28;20141;-66
2021/01/26 03:36:39;;;;;;;2.88;1.35;;;14.00;99.90;;;;;;5011842;28;20550;-66
2021/01/26 03:39:06;;;;;;;3.13;1.20;;;13.90;99.90;;;;;;5012661;28;20128;-66
2021/01/26 03:41:32;;;;;;;2.92;1.50;;;13.90;99.90;;;;;;5012329;28;20022;-65
2021/01/26 03:43:58;;;;;;;3.15;1.42;;;13.90;99.90;;;;;;5012689;28;20034;-66
2021/01/26 03:46:47;;;;;;;2.97;1.30;;;13.90;99.90;;;;;;5012452;28;20101;-66
2021/01/26 03:49:54;;;;;;;1.80;1.15;;;13.90;99.90;;;;;;5012535;28;20371;-66
2021/01/26 03:52:42;;;;;;;2.42;1.15;;;13.90;99.90;;;;;;4990532;28;20121;-66
2021/01/26 03:55:28;;;;;;;2.15;1.10;;;13.90;99.90;;;;;;5011719;28;20119;-66
2021/01/26 03:58:15;;;;;;;2.85;1.15;;;13.90;99.90;;;;;;5011554;28;20025;-65
2021/01/26 04:00:43;;;;;;;4.43;1.40;;;13.80;99.90;;;;;;5011671;28;20068;-66
2021/01/26 04:03:09;;;;;;;3.70;1.38;;;13.80;99.90;;;;;;5012105;28;20104;-65
2021/01/26 04:05:46;;;;;;;4.20;1.25;;;13.80;99.90;;;;;;5011771;28;20115;-65
2021/01/26 04:08:52;;;;;;;2.85;1.42;;;13.80;99.90;;;;;;5012020;28;20056;-65
2021/01/26 04:11:29;;;;;;;2.47;1.20;;;13.80;99.90;;;;;;5010628;28;20110;-66
2021/01/26 04:14:13;;;;;;;2.35;1.30;;;13.70;99.90;;;;;;5011727;28;20107;-66
2021/01/26 04:16:41;;;;;;;;;;;13.80;99.90;;;;;;5012189;28;20032;-67
2021/01/26 04:19:10;;;;;;;2.10;1.20;;;13.70;99.90;;;;;;5011901;28;19917;-66
2021/01/26 04:21:38;;;;;;;2.72;1.17;;;13.70;99.90;;;;;;5011673;28;20026;-66
2021/01/26 04:24:04;;;;;;;2.22;1.20;;;13.70;99.90;;;;;;5011909;28;20080;-66
2021/01/26 04:26:33;;;;;;;1.80;1.10;;;13.70;99.90;;;;;;5012356;28;20359;-66
2021/01/26 04:28:59;;;;;;;2.05;1.00;;;13.70;99.90;;;;;;5011595;28;20033;-66
2021/01/26 04:31:26;;;;;;;2.45;1.20;;;13.60;99.90;;;;;;5011453;28;20022;-66
2021/01/26 04:33:51;;;;;;;3.35;1.23;;;13.60;99.90;;;;;;4992107;28;20048;-67
2021/01/26 04:36:20;;;;;;;1.88;1.00;;;13.60;99.90;;;;;;5003585;28;20374;-66
2021/01/26 04:38:45;;;;;;;3.03;1.20;;;13.60;99.90;;;;;;5011421;28;20037;-66
2021/01/26 04:41:39;;;;;;;3.92;1.30;;;13.60;99.90;;;;;;5011664;28;20053;-66
2021/01/26 04:44:22;;;;;;;2.97;1.10;;;13.60;99.90;;;;;;5011617;28;20429;-67
2021/01/26 04:47:08;;;;;;;2.10;1.08;;;13.60;99.90;;;;;;5011302;28;20507;-65
2021/01/26 04:50:13;;;;;;;2.42;1.17;;;13.50;99.90;;;;;;5011377;28;20030;-66
2021/01/26 04:53:04;;;;;;;2.40;0.98;;;13.50;99.90;;;;;;5003049;28;20060;-65
2021/01/26 04:55:51;;;;;;;2.08;0.90;;;13.50;99.90;;;;;;5011718;28;20029;-65
2021/01/26 04:58:54;;;;;;;2.60;1.00;;;13.50;99.90;;;;;;5011180;28;20029;-64
2021/01/26 05:01:54;;;;;;;3.22;1.00;;;13.50;99.90;;;;;;5011540;28;20065;-65
2021/01/26 05:04:26;;;;;;;2.45;1.08;;;13.40;99.90;;;;;;4989664;28;20073;-65
2021/01/26 05:06:58;;;;;;;2.08;1.13;;;13.50;99.90;;;;;;5012370;28;20088;-64
2021/01/26 05:09:36;;;;;;;2.05;1.10;;;13.50;99.90;;;;;;5015357;28;20433;-65
2021/01/26 05:12:05;;;;;;;3.10;1.15;;;13.40;99.90;;;;;;5015477;28;20030;-65
2021/01/26 05:14:35;;;;;;;1.92;1.10;;;13.40;99.90;;;;;;5015458;28;20025;-66
2021/01/26 05:17:33;;;;;;;2.15;1.10;;;13.40;99.90;;;;;;5015566;28;20080;-66
2021/01/26 05:20:04;;;;;;;2.95;1.23;;;13.40;99.90;;;;;;5015344;28;20104;-65
2021/01/26 05:22:30;;;;;;;2.58;1.10;;;13.40;99.90;;;;;;5015523;28;20021;-65
2021/01/26 05:25:11;;;;;;;2.05;1.05;;;13.40;99.90;;;;;;5014862;28;20030;-67
2021/01/26 05:27:37;;;;;;;2.25;1.33;;;13.40;99.90;;;;;;5013141;28;20021;-66
2021/01/26 05:30:10;;;;;;;2.60;1.08;;;13.40;99.90;;;;;;5015038;28;20018;-65
2021/01/26 05:32:41;;;;;;;3.33;1.10;;;13.30;99.90;;;;;;5014764;28;20025;-67
2021/01/26 05:35:07;;;;;;;2.40;1.20;;;13.30;99.90;;;;;;5013584;28;20117;-65
2021/01/26 05:37:33;;;;;;;2.75;1.27;;;13.40;99.90;;;;;;5014536;28;20108;-65
2021/01/26 05:40:10;;;;;;;1.95;1.10;;;13.40;99.90;;;;;;5014972;28;20451;-66
2021/01/26 05:42:36;;;;;;;2.97;1.30;;;13.40;99.90;;;;;;5014482;28;20104;-65
2021/01/26 05:45:32;;;;;;;4.28;1.13;;;13.40;99.90;;;;;;5014576;28;20021;-65
2021/01/26 05:48:09;;;;;;;2.72;1.10;;;13.30;99.90;;;;;;5014812;28;20026;-65
2021/01/26 05:50:37;;;;;;;3.00;1.00;;;13.30;99.90;;;;;;5014388;28;20455;-65
2021/01/26 05:53:26;;;;;;;1.52;1.00;;;13.30;99.90;;;;;;5013901;28;20041;-65
2021/01/26 05:56:09;;;;;;;1.73;0.93;;;13.30;99.90;;;;;;5014399;28;20030;-65
2021/01/26 05:58:35;;;;;;;1.77;1.00;;;13.30;99.90;;;;;;5013806;28;20042;-64
2021/01/26 06:01:05;;;;;;;2.17;0.95;;;13.30;99.90;;;;;;5013797;28;20050;-64
2021/01/26 06:03:31;;;;;;;3.53;1.20;;;13.30;99.90;;;;;;4995464;28;20018;-64
2021/01/26 06:06:08;;;;;;;1.95;0.80;;;13.30;99.90;;;;;;4995004;28;20026;-65
2021/01/26 06:08:49;;;;;;;2.22;0.82;;;13.40;99.90;;;;;;4994495;28;20398;-65
2021/01/26 06:11:18;;;;;;;2.10;1.00;;;13.40;99.90;;;;;;4994800;28;20053;-65
2021/01/26 06:13:43;;;;;;;1.52;0.75;;;13.40;99.90;;;;;;4994408;28;20080;-65
2021/01/26 06:16:23;;;;;;;1.80;0.70;;;13.40;99.90;;;;;;4994436;28;20474;-65
2021/01/26 06:19:01;;;;;;;1.50;0.70;;;13.40;99.90;;;;;;4993972;28;20400;-64
2021/01/26 06:21:29;;;;;;;1.95;1.08;;;13.40;99.90;;;;;;4994938;28;20037;-65
2021/01/26 06:23:57;;;;;;;2.38;0.75;;;13.40;99.90;;;;;;4994299;28;20023;-66
2021/01/26 06:26:30;;;;;;;1.60;0.90;;;13.50;99.90;;;;;;4994329;28;20026;-65
2021/01/26 06:29:14;;;;;;;1.52;0.90;;;13.50;99.90;;;;;;5009652;28;20037;-67
2021/01/26 06:31:53;;;;;;;2.33;0.90;;;13.50;99.90;;;;;;5013823;28;20041;-66
2021/01/26 06:34:54;;;;;;;2.47;1.00;;;13.50;99.90;;;;;;5013376;28;20539;-66
2021/01/26 06:38:00;;;;;;;2.20;0.85;;;13.50;99.90;;;;;;4994330;28;20030;-66
2021/01/26 06:40:54;;;;;;;2.55;0.88;;;13.60;99.90;;;;;;4994223;28;20434;-67
2021/01/26 06:43:48;;;;;;;1.88;0.90;;;13.60;99.90;;;;;;4994027;28;20065;-66
2021/01/26 06:46:16;;;;;;;1.80;0.90;;;13.70;99.90;;;;;;5002394;28;20069;-66
2021/01/26 06:49:28;;;;;;;4.10;0.90;;;13.70;99.90;;;;;;5013434;28;20513;-65
2021/01/26 06:52:31;;;;;;;1.77;0.77;;;13.70;99.90;;;;;;5012922;28;20100;-65
2021/01/26 06:55:00;;;;;;;2.47;0.95;;;13.80;99.90;;;;;;5013862;28;20037;-64
2021/01/26 06:57:40;;;;;;;1.77;1.08;;;13.90;99.90;;;;;;5013053;28;20022;-65
2021/01/26 07:00:28;;;;;;;1.10;0.60;;;13.90;99.90;;;;;;5013378;28;20061;-63
2021/01/26 07:02:59;;;;;;;1.83;0.80;;;14.00;99.90;;;;;;5013077;28;20060;-68
2021/01/26 07:06:04;;;;;;;2.35;0.63;;;14.10;99.90;;;;;;5011891;28;20034;-66
2021/01/26 07:08:48;;;;;;;3.30;0.80;;;14.20;99.90;;;;;;5011483;28;20115;-67
2021/01/26 07:11:40;;;;;;;1.45;0.73;;;14.30;99.90;;;;;;5013349;28;20022;-70
2021/01/26 07:14:33;;;;;;;2.97;1.02;;;14.40;99.90;;;;;;5012691;28;20137;-72
2021/01/26 07:17:07;;;;;;;2.97;0.90;;;14.50;99.90;;;;;;5013504;28;20466;-64
2021/01/26 07:20:00;;;;;;;8.50;1.15;;;14.70;99.80;;;;;;5012786;28;20026;-66
2021/01/26 07:22:43;;;;;;;4.93;1.00;;;14.70;99.90;;;;;;5013227;28;20113;-65
2021/01/26 07:25:29;;;;;;;9.55;1.30;;;14.80;99.90;;;;;;5013218;28;20056;-64
2021/01/26 07:28:19;;;;;;;4.90;1.42;;;14.80;99.90;;;;;;5012814;28;20029;-64
2021/01/26 07:31:02;;;;;;;4.88;2.08;;;14.60;99.30;;;;;;5012007;28;20105;-64
2021/01/26 07:33:36;;;;;;;7.00;2.22;;;13.50;97.40;;;;;;5012828;28;20038;-63
2021/01/26 07:36:41;;;;;;;5.35;2.30;;;12.80;97.00;;;;;;5012525;28;20054;-62
2021/01/26 07:39:12;;;;;;;6.70;2.30;;;12.30;96.90;;;;;;5007666;28;20541;-62
2021/01/26 07:41:48;;;;;;;5.05;2.40;;;11.90;97.00;;;;;;5012554;28;20077;-65
2021/01/26 07:44:26;;;;;;;7.32;2.70;;;11.70;96.90;;;;;;5012115;28;20471;-64
2021/01/26 07:47:11;;;;;;;5.70;2.42;;;11.60;96.80;;;;;;5012485;28;20037;-64
2021/01/26 07:49:53;;;;;;;8.35;2.42;;;11.30;96.80;;;;;;5012193;28;20079;-62
2021/01/26 07:52:20;;;;;;;7.13;2.60;;;11.00;97.00;;;;;;5012001;28;20022;-64
2021/01/26 07:55:07;;;;;;;6.82;2.70;;;10.70;97.20;;;;;;5012360;28;20117;-64
2021/01/26 07:57:45;;;;;;;10.65;2.70;;;10.60;97.50;;;;;;5010494;28;20478;-65
2021/01/26 08:00:15;;;;;;;5.53;2.00;;;10.40;97.70;;;;;;5011997;28;20112;-64
2021/01/26 08:02:45;;;;;;;5.55;2.25;;;10.80;97.90;;;;;;5012169;28;20022;-66
2021/01/26 08:05:17;;;;;;;7.00;1.98;;;11.30;97.80;;;;;;5012049;28;20025;-64
2021/01/26 08:07:44;;;;;;;3.58;1.75;;;11.70;98.10;;;;;;5012044;28;20014;-63
2021/01/26 08:10:22;;;;;;;4.15;1.50;;;11.90;98.60;;;;;;5011554;28;20028;-71
2021/01/26 08:12:48;;;;;;;8.10;1.65;;;13.20;98.90;;;;;;5011897;28;20422;-69
2021/01/26 08:15:26;;;;;;;3.65;1.13;;;14.60;97.70;;;;;;5010506;28;20018;-71
2021/01/26 08:17:53;;;;;;;2.78;1.00;;;15.20;96.70;;;;;;5011449;28;20030;-67
2021/01/26 08:20:24;;;;;;;3.67;1.10;;;16.40;95.60;;;;;;5012045;28;20037;-67
2021/01/26 08:23:03;;;;;;;1.45;0.90;;;17.40;94.60;;;;;;5011862;28;20513;-68
2021/01/26 08:25:36;;;;;;;0.98;0.73;;;18.00;94.10;;;;;;5012094;28;20030;-68
2021/01/26 08:28:08;;;;;;;2.50;1.02;;;18.50;93.70;;;;;;5011713;28;20033;-67
2021/01/26 08:30:36;;;;;;;4.10;0.80;;;18.70;93.50;;;;;;5011442;28;20041;-73
2021/01/26 08:33:27;;;;;;;7.88;1.00;;;18.90;93.70;;;;;;5011860;28;20083;-64
2021/01/26 08:36:04;;;;;;;4.13;0.90;;;18.90;94.00;;;;;;5011312;28;20069;-67
2021/01/26 08:38:46;;;;;;;5.30;1.15;;;19.30;93.60;;;;;;5012177;28;20042;-67
2021/01/26 08:41:30;;;;;;;1.52;0.80;;;19.30;93.50;;;;;;5011867;28;20378;-67
2021/01/26 08:43:56;;;;;;;5.13;0.68;;;19.60;93.30;;;;;;5011643;28;20026;-70
2021/01/26 08:46:39;;;;;;;1.92;0.80;;;19.80;93.10;;;;;;5011790;28;20041;-68
2021/01/26 08:49:22;;;;;;;4.40;0.98;;;20.10;93.00;;;;;;5011711;28;20026;-71
2021/01/26 08:51:49;;;;;;;1.50;0.70;;;20.30;93.10;;;;;;5011309;28;20034;-63
2021/01/26 08:54:43;;;;;;;1.98;1.00;;;20.00;93.00;;;;;;5010883;28;20117;-63
2021/01/26 08:57:27;;;;;;;2.65;0.90;;;19.10;93.90;;;;;;5011552;28;20125;-64
2021/01/26 09:00:12;;;;;;;2.10;0.95;;;18.50;94.90;;;;;;5011524;28;20061;-66
2021/01/26 09:02:42;;;;;;;0.98;0.60;;;18.30;95.30;;;;;;5011401;28;20022;-63
2021/01/26 09:05:10;;;;;;;1.70;0.90;;;19.40;94.20;;;;;;5011542;28;20048;-64
2021/01/26 09:07:52;;;;;;;2.42;1.00;;;20.30;93.20;;;;;;5011414;28;20435;-64
2021/01/26 09:10:49;;;;;;;1.50;0.60;;;20.80;92.60;;;;;;5011580;28;20037;-64
2021/01/26 09:13:26;;;;;;;1.55;0.52;;;21.10;92.30;;;;;;5011594;28;20037;-64
2021/01/26 09:15:56;;;;;;;2.50;0.70;;;21.40;91.90;;;;;;5011368;28;20034;-63
2021/01/26 09:18:24;;;;;;;1.45;0.75;;;21.70;91.80;;;;;;5011358;28;20033;-63
2021/01/26 09:21:06;;;;;;;1.52;0.70;;;21.30;92.00;;;;;;5011403;28;20076;-64
2021/01/26 09:23:33;;;;;;;1.00;0.50;;;20.50;92.80;;;;;;5011413;28;20466;-63
2021/01/26 09:25:59;;;;;;;1.77;1.00;;;19.90;93.50;;;;;;5011663;28;20494;-63
2021/01/26 09:28:27;;;;;;;2.22;0.80;;;19.60;93.80;;;;;;5010755;28;20030;-67
2021/01/26 09:30:59;;;;;;;2.03;0.80;;;19.50;95.00;;;;;;5010723;28;20040;-65
2021/01/26 09:33:29;;;;;;;4.05;0.77;;;19.40;95.20;;;;;;5011364;28;20045;-64
2021/01/26 09:36:00;;;;;;;3.15;1.13;;;19.40;94.50;;;;;;5010415;28;20168;-66
2021/01/26 09:38:31;;;;;;;1.50;0.68;;;19.40;94.40;;;;;;5011238;28;20033;-64
2021/01/26 09:41:07;;;;;;;2.67;0.98;;;19.40;94.80;;;;;;5006325;28;20480;-65
2021/01/26 09:43:39;;;;;;;2.13;0.90;;;19.40;94.40;;;;;;4991453;28;20030;-65
2021/01/26 09:46:07;;;;;;;1.13;0.65;;;19.40;94.40;;;;;;4991888;28;20026;-64
2021/01/26 09:48:45;;;;;;;1.88;0.80;;;19.40;94.40;;;;;;4991414;28;20027;-64
2021/01/26 09:51:19;;;;;;;2.55;0.80;;;19.40;94.60;;;;;;4991694;28;20023;-64
2021/01/26 09:53:48;;;;;;;1.50;0.90;;;19.40;94.40;;;;;;5005365;28;20029;-64
2021/01/26 09:56:21;;;;;;;2.75;0.90;;;19.40;94.70;;;;;;5014791;28;20034;-63
2021/01/26 09:58:50;;;;;;;1.80;0.90;;;19.50;94.40;;;;;;5013838;28;20088;-64
2021/01/26 10:01:17;;;;;;;1.58;0.90;;;19.50;94.30;;;;;;5014887;28;20030;-63
2021/01/26 10:03:43;;;;;;;1.55;0.73;;;19.50;94.60;;;;;;5014261;28;20536;-65
2021/01/26 10:06:10;;;;;;;2.38;0.85;;;19.50;94.70;;;;;;5014701;28;20036;-65
2021/01/26 10:08:36;;;;;;;3.25;1.02;;;19.50;94.50;;;;;;5014341;28;20025;-65
2021/01/26 10:11:18;;;;;;;1.95;1.10;;;19.50;94.40;;;;;;5014534;28;20026;-64
2021/01/26 10:13:48;;;;;;;1.40;0.80;;;19.50;94.80;;;;;;5014412;28;20049;-64
2021/01/26 10:16:29;;;;;;;1.92;1.00;;;19.60;94.70;;;;;;5014379;28;20022;-65
2021/01/26 10:18:55;;;;;;;1.45;0.90;;;19.60;94.50;;;;;;5014084;28;20042;-66
2021/01/26 10:21:30;;;;;;;2.08;0.98;;;19.60;94.50;;;;;;5014199;28;20216;-68
2021/01/26 10:24:24;;;;;;;2.60;1.30;;;19.60;94.60;;;;;;5013346;28;20128;-65
2021/01/26 10:26:50;;;;;;;2.28;1.05;;;19.60;94.40;;;;;;4991680;28;20034;-64
2021/01/26 10:29:20;;;;;;;1.35;0.90;;;19.60;94.30;;;;;;4994548;28;20027;-62
2021/01/26 10:31:55;;;;;;;0.98;0.60;;;19.60;94.20;;;;;;4994265;28;20087;-69
2021/01/26 10:34:34;;;;;;;2.67;0.93;;;19.70;94.60;;;;;;4993322;28;20387;-69
2021/01/26 10:37:21;;;;;;;2.65;1.00;;;19.70;94.30;;;;;;4994662;28;20530;-66
2021/01/26 10:40:03;;;;;;;2.90;1.02;;;19.60;94.30;;;;;;5004344;28;20046;-65
2021/01/26 10:42:29;;;;;;;1.40;0.90;;;19.60;94.40;;;;;;5015596;28;20026;-65
2021/01/26 10:44:56;;;;;;;2.42;0.90;;;21.00;93.10;;;;;;5012330;28;20018;-68
2021/01/26 10:47:29;;;;;;;2.55;0.95;;;21.70;92.40;;;;;;5013429;28;20029;-70
2021/01/26 10:50:20;;;;;;;1.33;0.80;;;22.20;91.70;;;;;;5013534;28;20076;-68
2021/01/26 10:52:48;;;;;;;1.35;0.90;;;22.60;91.30;;;;;;5008621;28;20084;-67
2021/01/26 10:55:17;;;;;;;1.48;0.68;;;22.80;90.90;;;;;;5013387;28;20026;-68
2021/01/26 10:57:44;;;;;;;2.13;0.80;;;23.00;90.70;;;;;;5012955;28;20058;-65
2021/01/26 11:00:13;;;;;;;1.80;0.65;;;23.30;90.40;;;;;;5013095;28;20038;-68
2021/01/26 11:02:39;;;;;;;1.77;0.77;;;23.40;90.20;;;;;;5012605;28;20033;-68
2021/01/26 11:05:08;;;;;;;1.85;0.75;;;23.70;89.90;;;;;;5011991;28;20038;-66
2021/01/26 11:07:34;;;;;;;2.45;0.80;;;23.80;89.50;;;;;;5012661;28;20049;-68
2021/01/26 11:09:59;;;;;;;1.42;0.85;;;24.00;89.00;;;;;;5013104;28;20483;-67
2021/01/26 11:12:25;;;;;;;1.38;0.60;;;24.10;88.50;;;;;;5012809;28;20025;-70
2021/01/26 11:14:54;;;;;;;1.98;0.98;;;24.30;88.30;;;;;;5012037;28;20088;-66
2021/01/26 11:17:21;;;;;;;0.93;0.70;;;24.30;89.00;;;;;;5012863;28;20413;-67
2021/01/26 11:19:47;;;;;;;2.20;0.98;;;23.80;88.80;;;;;;5011947;28;20046;-67
2021/01/26 11:22:13;;;;;;;1.90;1.00;;;23.00;90.20;;;;;;5012102;28;20033;-65
2021/01/26 11:24:39;;;;;;;1.67;1.00;;;22.60;90.50;;;;;;5011738;28;20116;-64
2021/01/26 11:27:05;;;;;;;1.80;0.85;;;22.30;90.70;;;;;;5013060;28;20160;-65
2021/01/26 11:29:30;;;;;;;1.52;0.90;;;22.00;91.30;;;;;;5012609;28;20422;-65
2021/01/26 11:31:56;;;;;;;1.98;0.80;;;21.80;91.60;;;;;;5012064;28;20493;-64
2021/01/26 11:34:22;;;;;;;2.92;1.05;;;21.50;92.20;;;;;;5012606;28;20038;-67
2021/01/26 11:36:48;;;;;;;1.52;0.90;;;21.40;92.10;;;;;;5012887;28;20022;-67
2021/01/26 11:39:14;;;;;;;2.15;0.90;;;21.20;92.10;;;;;;5012188;28;20042;-65
2021/01/26 11:41:39;;;;;;;2.25;1.08;;;21.20;92.20;;;;;;5011999;28;20033;-64
2021/01/26 11:44:06;;;;;;;2.78;0.85;;;21.10;92.30;;;;;;5012041;28;20101;-65
2021/01/26 11:46:32;;;;;;;2.33;0.80;;;20.90;92.40;;;;;;5013000;28;20026;-65
2021/01/26 11:48:58;;;;;;;1.45;0.80;;;20.90;92.50;;;;;;5012758;28;20030;-67
2021/01/26 11:51:23;;;;;;;1.38;0.85;;;20.70;92.60;;;;;;5012702;28;20037;-68
2021/01/26 11:53:49;;;;;;;1.20;0.70;;;20.50;92.80;;;;;;5011932;28;20101;-68
2021/01/26 11:56:14;;;;;;;2.05;0.80;;;20.30;93.00;;;;;;5012457;28;20363;-67
2021/01/26 11:58:40;;;;;;;3.08;0.85;;;20.20;93.20;;;;;;5012250;28;20088;-67
2021/01/26 12:01:06;;;;;;;1.75;0.73;;;20.10;93.40;;;;;;5011887;28;20018;-68
2021/01/26 12:03:32;;;;;;;0.95;0.63;;;20.00;93.60;;;;;;5011811;28;20105;-67
2021/01/26 12:05:59;;;;;;;1.33;0.60;;;19.80;93.70;;;;;;5012676;28;20040;-69
2021/01/26 12:08:24;;;;;;;1.20;0.68;;;19.70;93.80;;;;;;5011874;28;20064;-69
2021/01/26 12:10:51;;;;;;;1.23;0.60;;;19.50;94.30;;;;;;5012164;28;20428;-69
2021/01/26 12:13:18;;;;;;;1.02;0.60;;;19.40;94.10;;;;;;5011690;28;20025;-69
2021/01/26 12:15:44;;;;;;;1.63;0.70;;;19.30;94.30;;;;;;5011462;28;20030;-68
2021/01/26 12:18:11;;;;;;;1.70;0.70;;;19.20;94.40;;;;;;5011937;28;20037;-69
2021/01/26 12:20:37;;;;;;;1.02;0.50;;;19.00;94.50;;;;;;5011786;28;20114;-68
2021/01/26 12:23:03;;;;;;;0.77;0.50;;;18.90;94.60;;;;;;5011857;28;20100;-67
2021/01/26 12:25:31;;;;;;;1.17;0.50;;;18.80;94.80;;;;;;5012208;28;20037;-68
2021/01/26 12:27:57;;;;;;;1.77;0.77;;;18.60;94.90;;;;;;5011911;28;20410;-69
2021/01/26 12:30:23;;;;;;;0.80;0.40;;;18.50;95.00;;;;;;5011740;28;20033;-70
2021/01/26 12:32:49;;;;;;;0.73;0.40;;;18.50;95.50;;;;;;5011783;28;20034;-69
2021/01/26 12:35:29;;;;;;;1.25;0.68;;;18.40;95.30;;;;;;5011742;28;20025;-69
2021/01/26 12:37:55;;;;;;;1.10;0.50;;;18.20;95.40;;;;;;5011523;28;20482;-70
2021/01/26 12:40:22;;;;;;;0.93;0.50;;;18.10;95.50;;;;;;5011818;28;20034;-70
2021/01/26 12:42:48;;;;;;;1.30;0.50;;;18.00;95.60;;;;;;5011260;28;20032;-69
2021/01/26 12:45:16;;;;;;;0.82;0.40;;;17.90;95.70;;;;;;5011865;28;20037;-70
2021/01/26 12:47:42;;;;;;;0.90;0.35;;;17.70;95.80;;;;;;5011426;28;20021;-70
2021/01/26 12:50:10;;;;;;;0.60;0.40;;;17.60;95.90;;;;;;5011807;28;20030;-70
2021/01/26 12:52:36;;;;;;;0.98;0.40;;;17.50;96.10;;;;;;5011407;28;20037;-70
2021/01/26 12:55:02;;;;;;;1.25;0.50;;;17.40;96.10;;;;;;5010536;28;20024;-69
2021/01/26 12:57:27;;;;;;;0.93;0.50;;;17.30;96.20;;;;;;5010266;28;20445;-71
2021/01/26 12:59:53;;;;;;;1.10;0.68;;;17.30;96.20;;;;;;5010847;28;20030;-68
2021/01/26 13:02:20;;;;;;;1.80;0.60;;;17.70;96.20;;;;;;5011254;28;20026;-69
2021/01/26 13:04:46;;;;;;;2.70;0.60;;;19.00;94.80;;;;;;5011266;28;20482;-73
2021/01/26 13:07:11;;;;;;;2.05;0.80;;;20.30;93.50;;;;;;5011627;28;20030;-75
2021/01/26 13:09:37;;;;;;;3.42;0.90;;;20.90;92.70;;;;;;5011154;28;20029;-70
2021/01/26 13:12:03;;;;;;;2.47;0.90;;;21.00;92.40;;;;;;5011557;28;20101;-71
2021/01/26 13:14:28;;;;;;;2.05;1.00;;;21.20;92.10;;;;;;5011837;28;20096;-75
2021/01/26 13:16:54;;;;;;;1.77;0.85;;;21.30;91.80;;;;;;5010913;28;20513;-71
2021/01/26 13:19:21;;;;;;;2.05;1.13;;;21.50;91.60;;;;;;5010595;28;20116;-70
2021/01/26 13:21:47;;;;;;;1.52;0.80;;;21.70;91.40;;;;;;5011002;28;20064;-74